createdAt,value
2023-05-05T00:02:44.845Z,13.15
2023-05-05T00:05:50.427Z,12.83
2023-05-05T00:08:52.207Z,13.06
2023-05-05T00:11:54.021Z,13.14
2023-05-05T00:14:55.878Z,13.07
2023-05-05T00:17:57.785Z,13.06
2023-05-05T00:20:59.744Z,13.00
2023-05-05T00:24:05.002Z,12.92
2023-05-05T00:27:06.813Z,12.90
2023-05-05T00:30:09.135Z,12.73
2023-05-05T00:33:11.381Z,12.78
2023-05-05T00:36:13.805Z,12.87
2023-05-05T00:39:16.574Z,12.91
2023-05-05T00:42:19.177Z,12.80
2023-05-05T00:45:21.057Z,12.79
2023-05-05T00:48:25.549Z,12.79
2023-05-05T00:51:28.427Z,12.84
2023-05-05T00:54:30.490Z,12.90
2023-05-05T00:57:33.799Z,12.94
2023-05-05T01:00:35.956Z,12.77
2023-05-05T01:03:39.473Z,12.94
2023-05-05T01:07:08.415Z,13.04
2023-05-05T01:10:20.463Z,12.98
2023-05-05T01:13:54.477Z,12.94
2023-05-05T01:17:00.084Z,12.85
2023-05-05T01:20:26.409Z,12.82
2023-05-05T01:24:02.333Z,12.77
2023-05-05T01:27:43.315Z,12.80
2023-05-05T01:31:22.758Z,12.75
2023-05-05T01:34:29.042Z,12.58
2023-05-05T01:38:17.399Z,12.49
2023-05-05T01:41:39.621Z,12.41
2023-05-05T01:44:44.948Z,12.42
2023-05-05T01:47:47.742Z,12.39
2023-05-05T01:50:52.296Z,12.53
2023-05-05T01:53:57.759Z,12.43
2023-05-05T01:57:02.182Z,12.55
2023-05-05T02:00:04.862Z,12.65
2023-05-05T02:03:18.726Z,12.73
2023-05-05T02:06:22.944Z,12.70
2023-05-05T02:09:29.487Z,12.74
2023-05-05T02:12:32.370Z,12.61
2023-05-05T02:15:36.027Z,12.79
2023-05-05T02:18:38.964Z,12.72
2023-05-05T02:21:41.875Z,12.80
2023-05-05T02:24:44.570Z,12.82
2023-05-05T02:27:48.172Z,12.56
2023-05-05T02:31:00.674Z,12.67
2023-05-05T02:34:05.343Z,12.57
2023-05-05T02:37:12.844Z,12.57
2023-05-05T02:40:23.812Z,12.62
2023-05-05T02:43:31.268Z,12.70
2023-05-05T02:46:33.466Z,12.67
2023-05-05T02:49:35.396Z,12.71
2023-05-05T02:52:37.660Z,12.64
2023-05-05T02:56:01.149Z,12.60
2023-05-05T02:59:16.574Z,12.54
2023-05-05T03:02:27.819Z,12.43
2023-05-05T03:05:38.729Z,12.36
2023-05-05T03:08:56.233Z,12.32
2023-05-05T03:12:05.702Z,12.19
2023-05-05T03:15:16.789Z,12.26
2023-05-05T03:18:20.457Z,12.22
2023-05-05T03:21:29.446Z,12.16
2023-05-05T03:24:31.352Z,12.13
2023-05-05T03:27:39.060Z,12.11
2023-05-05T03:30:42.109Z,12.06
2023-05-05T03:33:44.906Z,12.09
2023-05-05T03:36:46.778Z,12.01
2023-05-05T03:39:50.548Z,11.90
2023-05-05T03:42:52.762Z,12.04
2023-05-05T03:45:54.949Z,12.04
2023-05-05T03:48:57.400Z,12.05
2023-05-05T03:52:00.773Z,12.07
2023-05-05T03:55:03.272Z,11.76
2023-05-05T03:58:05.243Z,11.96
2023-05-05T04:01:07.252Z,12.00
2023-05-05T04:04:09.669Z,12.11
2023-05-05T04:07:11.694Z,12.22
2023-05-05T04:10:13.506Z,12.20
2023-05-05T04:13:15.520Z,12.30
2023-05-05T04:16:17.412Z,12.42
2023-05-05T04:19:19.244Z,12.52
2023-05-05T04:22:21.486Z,12.66
2023-05-05T04:25:23.888Z,12.58
2023-05-05T04:28:25.828Z,12.85
2023-05-05T04:31:27.788Z,12.85
2023-05-05T04:34:29.715Z,13.01
2023-05-05T04:37:31.569Z,13.01
2023-05-05T04:40:38.165Z,13.03
2023-05-05T04:43:41.046Z,12.95
2023-05-05T04:46:42.869Z,13.14
2023-05-05T04:49:45.174Z,13.19
2023-05-05T04:52:46.959Z,13.31
2023-05-05T04:55:48.819Z,13.44
2023-05-05T04:58:50.909Z,13.62
2023-05-05T05:01:52.720Z,13.76
2023-05-05T05:04:54.559Z,14.09
2023-05-05T05:07:56.329Z,14.66
2023-05-05T05:10:59.632Z,15.11
2023-05-05T05:14:01.472Z,15.78
2023-05-05T05:17:04.819Z,16.10
2023-05-05T05:20:08.234Z,16.83
2023-05-05T05:23:10.909Z,17.26
2023-05-05T05:26:17.654Z,17.78
2023-05-05T05:29:20.489Z,18.15
2023-05-05T05:32:23.159Z,18.52
2023-05-05T05:35:25.012Z,18.71
2023-05-05T05:38:26.797Z,19.04
2023-05-05T05:41:31.884Z,19.35
2023-05-05T05:44:33.871Z,19.60
2023-05-05T05:47:36.590Z,19.63
2023-05-05T05:50:38.388Z,19.81
2023-05-05T05:53:40.556Z,19.94
2023-05-05T05:56:43.508Z,19.90
2023-05-05T05:59:46.383Z,19.91
2023-05-05T06:02:48.466Z,20.15
2023-05-05T06:05:53.624Z,20.42
2023-05-05T06:08:55.816Z,20.68
2023-05-05T06:11:57.729Z,20.61
2023-05-05T06:14:59.658Z,20.45
2023-05-05T06:18:01.653Z,20.55
2023-05-05T06:21:03.436Z,20.82
2023-05-05T06:24:06.341Z,20.95
2023-05-05T06:27:09.859Z,21.08
2023-05-05T06:30:12.198Z,21.26
2023-05-05T06:33:13.959Z,21.36
2023-05-05T06:36:15.827Z,21.55
2023-05-05T06:39:17.688Z,21.81
2023-05-05T06:42:19.396Z,22.00
2023-05-05T06:45:21.789Z,22.17
2023-05-05T06:48:23.736Z,21.98
2023-05-05T06:51:27.672Z,21.98
2023-05-05T06:54:29.430Z,21.87
2023-05-05T06:57:31.331Z,22.02
2023-05-05T07:00:34.109Z,22.38
2023-05-05T07:03:35.908Z,22.28
2023-05-05T07:06:37.696Z,22.34
2023-05-05T07:09:41.293Z,22.21
2023-05-05T07:12:43.069Z,22.11
2023-05-05T07:15:47.744Z,22.47
2023-05-05T07:18:49.557Z,22.47
2023-05-05T07:21:52.160Z,22.46
2023-05-05T07:24:53.961Z,22.68
2023-05-05T07:27:56.482Z,22.62
2023-05-05T07:30:58.337Z,22.23
2023-05-05T07:34:00.150Z,22.25
2023-05-05T07:37:02.031Z,22.55
2023-05-05T07:40:04.138Z,22.89
2023-05-05T07:43:05.987Z,22.99
2023-05-05T07:46:08.561Z,22.97
2023-05-05T07:49:10.439Z,22.91
2023-05-05T07:52:12.345Z,22.41
2023-05-05T07:55:14.073Z,22.39
2023-05-05T07:58:16.385Z,23.01
2023-05-05T08:01:18.447Z,23.48
2023-05-05T08:04:20.320Z,23.77
2023-05-05T08:07:22.086Z,23.99
2023-05-05T08:10:23.904Z,24.29
2023-05-05T08:13:25.760Z,24.39
2023-05-05T08:16:27.766Z,24.50
2023-05-05T08:19:29.823Z,24.50
2023-05-05T08:22:32.733Z,24.63
2023-05-05T08:25:34.453Z,24.73
2023-05-05T08:28:36.959Z,24.68
2023-05-05T08:31:38.817Z,24.81
2023-05-05T08:34:40.658Z,25.05
2023-05-05T08:37:42.535Z,25.07
2023-05-05T08:40:44.905Z,25.16
2023-05-05T08:43:48.226Z,25.16
2023-05-05T08:46:50.718Z,25.13
2023-05-05T08:49:55.749Z,25.17
2023-05-05T08:53:18.133Z,24.98
2023-05-05T08:56:24.233Z,24.50
2023-05-05T08:59:30.178Z,24.50
2023-05-05T09:02:32.994Z,24.76
2023-05-05T09:05:36.033Z,24.89
2023-05-05T09:08:38.602Z,24.93
2023-05-05T09:11:41.758Z,24.97
2023-05-05T09:14:43.438Z,25.26
2023-05-05T09:17:45.231Z,25.29
2023-05-05T09:20:47.045Z,25.21
2023-05-05T09:24:11.224Z,25.45
2023-05-05T09:27:23.194Z,25.61
2023-05-05T09:30:26.108Z,25.57
2023-05-05T09:33:31.570Z,25.60
2023-05-05T09:36:50.264Z,25.59
2023-05-05T09:39:55.812Z,25.61
2023-05-05T09:43:02.772Z,25.57
2023-05-05T09:46:08.555Z,25.64
2023-05-05T09:49:15.588Z,25.06
2023-05-05T09:52:17.832Z,24.63
2023-05-05T09:55:19.767Z,24.16
2023-05-05T09:58:24.048Z,23.98
2023-05-05T10:01:28.914Z,23.42
2023-05-05T10:04:31.540Z,23.56
2023-05-05T10:07:34.123Z,24.10
2023-05-05T10:10:36.381Z,24.58
2023-05-05T10:13:42.184Z,24.86
2023-05-05T10:16:51.011Z,25.03
2023-05-05T10:19:57.415Z,24.54
2023-05-05T10:23:02.770Z,24.05
2023-05-05T10:26:07.732Z,23.55
2023-05-05T10:29:55.036Z,23.30
2023-05-05T10:36:29.246Z,22.87
2023-05-05T10:39:32.042Z,23.05
2023-05-05T10:42:33.805Z,23.12
2023-05-05T10:45:37.655Z,23.66
2023-05-05T10:48:51.404Z,24.14
2023-05-05T10:52:00.476Z,24.65
2023-05-05T10:55:05.003Z,24.58
2023-05-05T10:58:06.736Z,24.25
2023-05-05T11:01:09.445Z,24.02
2023-05-05T11:04:18.818Z,23.58
2023-05-05T11:07:23.986Z,23.57
2023-05-05T11:10:26.441Z,23.97
2023-05-05T11:13:28.713Z,24.28
2023-05-05T11:16:45.664Z,24.14
2023-05-05T11:19:48.257Z,23.77
2023-05-05T11:23:05.364Z,23.57
2023-05-05T11:26:07.343Z,23.66
2023-05-05T11:29:09.296Z,23.97
2023-05-05T11:32:13.141Z,24.18
2023-05-05T11:35:15.558Z,24.09
2023-05-05T11:38:21.128Z,23.89
2023-05-05T11:41:34.934Z,23.60
2023-05-05T11:44:36.823Z,23.11
2023-05-05T11:47:39.085Z,23.45
2023-05-05T11:50:40.992Z,23.68
2023-05-05T11:53:46.565Z,23.78
2023-05-05T11:56:53.694Z,23.74
2023-05-05T12:00:03.109Z,23.77
2023-05-05T12:03:07.142Z,23.44
2023-05-05T12:06:09.194Z,23.40
2023-05-05T12:09:19.918Z,23.41
2023-05-05T12:12:35.042Z,23.56
2023-05-05T12:15:37.431Z,23.65
2023-05-05T12:18:40.432Z,23.54
2023-05-05T12:21:45.668Z,23.62
2023-05-05T12:25:02.899Z,23.85
2023-05-05T12:28:06.629Z,23.82
2023-05-05T12:31:09.425Z,24.10
2023-05-05T12:34:12.271Z,24.19
2023-05-05T12:37:16.415Z,23.99
2023-05-05T12:40:51.937Z,24.20
2023-05-05T12:43:58.395Z,24.33
2023-05-05T12:47:00.127Z,24.31
2023-05-05T12:50:03.375Z,24.05
2023-05-05T12:53:05.121Z,23.71
2023-05-05T12:56:06.973Z,23.89
2023-05-05T12:59:21.382Z,24.03
2023-05-05T13:02:34.634Z,24.34
2023-05-05T13:05:36.714Z,24.13
2023-05-05T13:08:44.782Z,24.09
2023-05-05T13:11:46.597Z,24.20
2023-05-05T13:14:48.635Z,24.36
2023-05-05T13:17:50.414Z,24.43
2023-05-05T13:20:52.258Z,24.30
2023-05-05T13:23:54.827Z,23.88
2023-05-05T13:26:59.156Z,23.77
2023-05-05T13:30:01.285Z,23.78
2023-05-05T13:33:06.077Z,23.67
2023-05-05T13:36:08.209Z,23.84
2023-05-05T13:39:10.137Z,24.08
2023-05-05T13:42:11.932Z,23.93
2023-05-05T13:45:14.350Z,24.04
2023-05-05T13:48:16.380Z,24.03
2023-05-05T13:51:18.108Z,24.13
2023-05-05T13:54:20.458Z,24.07
2023-05-05T13:57:22.406Z,24.15
2023-05-05T14:00:24.352Z,24.37
2023-05-05T14:03:26.208Z,24.35
2023-05-05T14:06:28.145Z,24.21
2023-05-05T14:09:29.950Z,24.21
2023-05-05T14:12:32.360Z,24.28
2023-05-05T14:15:35.009Z,24.45
2023-05-05T14:18:36.727Z,24.45
2023-05-05T14:21:38.489Z,24.34
2023-05-05T14:24:40.220Z,24.34
2023-05-05T14:27:42.014Z,24.36
2023-05-05T14:30:43.827Z,24.45
2023-05-05T14:33:46.076Z,24.32
2023-05-05T14:36:47.849Z,24.12
2023-05-05T14:39:49.667Z,24.14
2023-05-05T14:42:51.564Z,24.06
2023-05-05T14:45:53.450Z,24.00
2023-05-05T14:48:55.479Z,23.96
2023-05-05T14:51:57.254Z,23.80
2023-05-05T14:54:59.172Z,23.53
2023-05-05T14:58:00.937Z,23.76
2023-05-05T15:01:02.737Z,23.78
2023-05-05T15:04:04.953Z,23.93
2023-05-05T15:07:06.968Z,23.92
2023-05-05T15:10:12.105Z,23.87
2023-05-05T15:13:13.945Z,23.84
2023-05-05T15:16:16.384Z,23.82
2023-05-05T15:19:18.059Z,23.71
2023-05-05T15:22:19.767Z,23.66
2023-05-05T15:25:21.763Z,23.56
2023-05-05T15:28:26.701Z,23.63
2023-05-05T15:31:28.413Z,23.60
2023-05-05T15:34:30.286Z,23.48
2023-05-05T15:37:32.348Z,23.38
2023-05-05T15:40:36.087Z,23.30
2023-05-05T15:43:37.807Z,23.27
2023-05-05T15:46:40.952Z,23.12
2023-05-05T15:49:42.777Z,23.18
2023-05-05T15:52:44.625Z,23.14
2023-05-05T15:55:46.871Z,23.26
2023-05-05T15:58:48.594Z,23.26
2023-05-05T16:01:50.263Z,23.23
2023-05-05T16:04:52.301Z,23.30
2023-05-05T16:07:54.156Z,23.01
2023-05-05T16:10:57.357Z,23.27
2023-05-05T16:13:59.202Z,23.11
2023-05-05T16:17:03.612Z,23.11
2023-05-05T16:20:06.629Z,23.11
2023-05-05T16:23:08.808Z,23.04
2023-05-05T16:26:10.543Z,22.93
2023-05-05T16:29:13.445Z,22.88
2023-05-05T16:32:15.127Z,22.77
2023-05-05T16:35:17.080Z,22.82
2023-05-05T16:38:18.794Z,22.85
2023-05-05T16:41:21.278Z,22.80
2023-05-05T16:44:23.055Z,22.74
2023-05-05T16:47:25.245Z,22.66
2023-05-05T16:50:27.051Z,22.70
2023-05-05T16:53:28.792Z,22.42
2023-05-05T16:56:30.565Z,22.62
2023-05-05T16:59:32.334Z,22.62
2023-05-05T17:02:35.369Z,22.33
2023-05-05T17:05:37.325Z,22.52
2023-05-05T17:08:39.223Z,22.44
2023-05-05T17:11:40.918Z,22.31
2023-05-05T17:14:42.973Z,22.19
2023-05-05T17:17:44.788Z,22.00
2023-05-05T17:20:46.556Z,21.96
2023-05-05T17:23:48.272Z,21.74
2023-05-05T17:26:50.595Z,21.75
2023-05-05T17:29:52.787Z,21.59
2023-05-05T17:32:54.797Z,21.38
2023-05-05T17:35:56.627Z,21.35
2023-05-05T17:38:58.477Z,21.26
2023-05-05T17:42:00.153Z,21.06
2023-05-05T17:45:05.331Z,20.91
2023-05-05T17:48:07.598Z,20.74
2023-05-05T17:51:09.332Z,20.47
2023-05-05T17:54:11.190Z,20.44
2023-05-05T17:57:13.342Z,20.28
2023-05-05T18:00:15.452Z,20.23
2023-05-05T18:03:17.555Z,20.03
2023-05-05T18:06:19.379Z,20.04
2023-05-05T18:09:21.334Z,19.95
2023-05-05T18:12:23.101Z,19.76
2023-05-05T18:15:25.046Z,19.60
2023-05-05T18:18:26.879Z,19.41
2023-05-05T18:21:29.536Z,19.17
2023-05-05T18:24:31.878Z,19.13
2023-05-05T18:27:34.356Z,19.07
2023-05-05T18:30:36.209Z,19.03
2023-05-05T18:33:38.012Z,18.91
2023-05-05T18:36:39.712Z,18.90
2023-05-05T18:39:43.798Z,18.74
2023-05-05T18:42:45.792Z,18.97
2023-05-05T18:45:47.566Z,18.86
2023-05-05T18:48:49.348Z,18.72
2023-05-05T18:51:51.133Z,18.72
2023-05-05T18:54:53.214Z,18.71
2023-05-05T18:57:55.081Z,18.69
2023-05-05T19:00:57.905Z,18.63
2023-05-05T19:03:59.837Z,18.39
2023-05-05T19:07:01.609Z,18.19
2023-05-05T19:10:07.226Z,18.21
2023-05-05T19:13:11.298Z,18.22
2023-05-05T19:16:13.112Z,18.10
2023-05-05T19:19:14.982Z,17.97
2023-05-05T19:22:20.981Z,17.92
2023-05-05T19:25:22.825Z,17.80
2023-05-05T19:28:24.588Z,17.50
2023-05-05T19:31:30.883Z,17.76
2023-05-05T19:34:33.136Z,17.68
2023-05-05T19:37:34.870Z,17.67
2023-05-05T19:40:40.089Z,17.73
2023-05-05T19:43:41.967Z,17.70
2023-05-05T19:46:43.803Z,17.51
2023-05-05T19:49:45.683Z,17.40
2023-05-05T19:52:47.425Z,17.42
2023-05-05T19:55:49.270Z,17.39
2023-05-05T19:58:57.805Z,16.90
2023-05-05T20:01:59.650Z,17.17
2023-05-05T20:05:01.545Z,17.17
2023-05-05T20:08:03.351Z,17.08
2023-05-05T20:11:05.135Z,17.18
2023-05-05T20:14:11.742Z,16.91
2023-05-05T20:17:13.536Z,17.08
2023-05-05T20:20:18.711Z,16.98
2023-05-05T20:23:20.427Z,16.80
2023-05-05T20:26:24.680Z,16.83
2023-05-05T20:29:26.910Z,16.77
2023-05-05T20:32:29.617Z,16.73
2023-05-05T20:35:31.340Z,16.68
2023-05-05T20:38:34.207Z,16.43
2023-05-05T20:41:38.032Z,16.57
2023-05-05T20:44:40.165Z,16.54
2023-05-05T20:47:41.989Z,16.46
2023-05-05T20:50:43.707Z,16.47
2023-05-05T20:53:46.274Z,16.22
2023-05-05T20:56:47.985Z,16.22
2023-05-05T20:59:49.789Z,16.11
2023-05-05T21:02:51.660Z,16.13
2023-05-05T21:05:54.249Z,16.16
2023-05-05T21:08:56.156Z,15.79
2023-05-05T21:11:57.922Z,15.93
2023-05-05T21:14:59.752Z,16.04
2023-05-05T21:18:01.613Z,15.95
2023-05-05T21:21:03.448Z,15.76
2023-05-05T21:24:07.744Z,15.72
2023-05-05T21:27:10.352Z,15.67
2023-05-05T21:30:12.734Z,15.64
2023-05-05T21:33:14.888Z,15.57
2023-05-05T21:36:19.576Z,15.43
2023-05-05T21:39:21.371Z,15.40
2023-05-05T21:42:24.359Z,15.35
2023-05-05T21:45:26.147Z,15.39
2023-05-05T21:48:28.239Z,15.33
2023-05-05T21:51:30.093Z,15.36
2023-05-05T21:54:31.827Z,15.38
2023-05-05T21:57:33.738Z,15.28
2023-05-05T22:00:35.635Z,15.15
2023-05-05T22:03:37.498Z,14.99
2023-05-05T22:06:39.253Z,15.12
2023-05-05T22:09:40.972Z,14.75
2023-05-05T22:12:42.765Z,15.02
2023-05-05T22:15:47.266Z,14.94
2023-05-05T22:18:49.882Z,15.00
2023-05-05T22:21:53.328Z,14.90
2023-05-05T22:24:55.373Z,14.88
2023-05-05T22:27:57.089Z,14.69
2023-05-05T22:30:58.933Z,14.69
2023-05-05T22:34:00.877Z,14.75
2023-05-05T22:37:02.584Z,14.75
2023-05-05T22:40:04.911Z,14.70
2023-05-05T22:43:06.616Z,14.73
2023-05-05T22:46:08.337Z,14.66
2023-05-05T22:49:10.374Z,14.71
2023-05-05T22:52:12.643Z,14.59
2023-05-05T22:55:15.095Z,14.53
2023-05-05T22:58:16.834Z,14.46
2023-05-05T23:01:18.656Z,14.34
2023-05-05T23:04:20.520Z,14.38
2023-05-05T23:07:22.345Z,14.17
2023-05-05T23:10:24.035Z,14.26
2023-05-05T23:13:25.844Z,14.26
2023-05-05T23:16:27.603Z,14.18
2023-05-05T23:19:32.092Z,14.05
2023-05-05T23:22:33.873Z,14.02
2023-05-05T23:25:35.906Z,14.06
2023-05-05T23:28:37.741Z,14.03
2023-05-05T23:31:39.453Z,13.95
2023-05-05T23:34:41.500Z,13.76
2023-05-05T23:37:43.201Z,13.92
2023-05-05T23:40:44.928Z,13.60
2023-05-05T23:43:46.864Z,13.75
2023-05-05T23:46:50.192Z,13.71
2023-05-05T23:49:53.289Z,13.57
2023-05-05T23:52:55.444Z,13.80
2023-05-05T23:55:57.269Z,13.68
2023-05-05T23:58:59.030Z,13.53
